Time;durP1;ratioP1;P1;durP2;ratioP2;P2;SDS_P1;SDS_P2;PMS_P1;PMS_P2;Temp;Humidity;BMP_temperature;BMP_pressure;BME280_temperature;BME280_humidity;BME280_pressure;Samples;Min_cycle;Max_cycle;Signal;HPM_P1;HPM_P2
2024/02/15 00:00:03;;;;;;;10.45;4.65;;;;;;;10.24;100.00;99321.28;5061084;28;20201;-78
2024/02/15 00:02:29;;;;;;;13.00;4.53;;;;;;;10.15;100.00;99313.47;5051873;28;20063;-77
2024/02/15 00:04:54;;;;;;;9.85;3.92;;;;;;;10.20;100.00;99317.28;5081022;28;20035;-77
2024/02/15 00:07:22;;;;;;;5.97;3.78;;;;;;;9.89;100.00;99282.34;5062112;28;20338;-77
2024/02/15 00:09:47;;;;;;;5.85;3.15;;;;;;;10.19;100.00;99310.19;5073701;28;20029;-77
2024/02/15 00:12:12;;;;;;;10.05;3.70;;;;;;;10.15;100.00;99313.47;5082018;28;20043;-77
2024/02/15 00:14:38;;;;;;;8.40;3.60;;;;;;;10.18;100.00;99318.50;5071983;28;20035;-77
2024/02/15 00:17:04;;;;;;;7.60;3.67;;;;;;;10.21;100.00;99318.09;5082519;28;20021;-77
2024/02/15 00:19:30;;;;;;;9.95;4.75;;;;;;;10.15;100.00;99308.06;5063451;28;20078;-77
2024/02/15 00:21:56;;;;;;;7.97;3.40;;;;;;;10.20;100.00;99319.16;5065828;28;20027;-77
2024/02/15 00:24:21;;;;;;;9.05;3.50;;;;;;;10.16;100.00;99305.16;5064713;28;20020;-77
2024/02/15 00:26:47;;;;;;;12.25;4.50;;;;;;;10.13;100.00;99297.41;5061748;28;20021;-77
2024/02/15 00:29:13;;;;;;;6.45;3.90;;;;;;;10.16;100.00;99307.84;5063755;28;20021;-77
2024/02/15 00:31:38;;;;;;;8.75;4.78;;;;;;;10.16;100.00;99315.13;5064453;28;20043;-76
2024/02/15 00:34:04;;;;;;;9.65;4.25;;;;;;;10.10;100.00;99309.44;5065491;28;20020;-76
2024/02/15 00:36:29;;;;;;;11.85;5.57;;;;;;;10.09;100.00;99315.06;5061093;28;20031;-76
2024/02/15 00:38:55;;;;;;;17.60;5.95;;;;;;;9.98;100.00;99300.16;5078060;28;20032;-77
2024/02/15 00:41:21;;;;;;;20.52;7.80;;;;;;;9.83;100.00;99275.81;5054302;28;20028;-77
2024/02/15 00:43:47;;;;;;;23.00;7.95;;;;;;;10.01;100.00;99307.06;5065590;28;20055;-78
2024/02/15 00:46:12;;;;;;;24.88;8.70;;;;;;;9.98;100.00;99300.16;5065741;28;20062;-76
2024/02/15 00:48:37;;;;;;;9.95;5.25;;;;;;;10.10;100.00;99308.63;5068261;28;20036;-77
2024/02/15 00:51:03;;;;;;;15.43;5.82;;;;;;;10.00;100.00;99291.84;5064462;28;20059;-77
2024/02/15 00:53:28;;;;;;;24.75;8.38;;;;;;;10.13;100.00;99316.34;5061136;28;20035;-78
2024/02/15 00:55:53;;;;;;;22.67;7.93;;;;;;;10.10;100.00;99303.22;5058831;28;20017;-78
2024/02/15 00:58:19;;;;;;;14.95;6.50;;;;;;;10.03;100.00;99275.25;5063826;28;20093;-79
2024/02/15 01:00:44;;;;;;;14.25;6.15;;;;;;;10.06;100.00;99294.66;5083856;28;20024;-78
2024/02/15 01:03:09;;;;;;;7.75;3.78;;;;;;;10.05;100.00;99292.13;5060901;28;20037;-77
2024/02/15 01:05:35;;;;;;;8.88;4.20;;;;;;;10.15;100.00;99317.00;5082884;28;20087;-77
2024/02/15 01:08:00;;;;;;;7.32;3.88;;;;;;;9.93;100.00;99274.69;5060046;28;20035;-79
2024/02/15 01:10:26;;;;;;;9.57;3.85;;;;;;;9.90;100.00;99275.06;5064243;28;20095;-78
2024/02/15 01:12:52;;;;;;;7.07;3.65;;;;;;;10.05;100.00;99294.81;5059030;28;20028;-78
2024/02/15 01:15:19;;;;;;;8.02;3.03;;;;;;;10.06;100.00;99301.88;5054332;28;20031;-78
2024/02/15 01:17:45;;;;;;;8.75;3.70;;;;;;;9.96;100.00;99296.78;5076078;28;20024;-77
2024/02/15 01:20:11;;;;;;;5.65;3.42;;;;;;;9.95;100.00;99294.25;5075943;28;20185;-78
2024/02/15 01:22:36;;;;;;;5.68;3.15;;;;;;;9.77;100.00;99287.38;5080301;28;20036;-77
2024/02/15 01:25:02;;;;;;;5.18;3.30;;;;;;;9.66;100.00;99287.84;5075589;28;20028;-78
2024/02/15 01:27:30;;;;;;;7.63;3.25;;;;;;;9.56;100.00;99289.97;5073131;28;20012;-78
2024/02/15 01:29:56;;;;;;;7.13;3.20;;;;;;;9.29;100.00;99275.22;5069732;28;20036;-78
2024/02/15 01:32:21;;;;;;;6.75;3.47;;;;;;;9.33;100.00;99293.59;5061800;28;20118;-79
2024/02/15 01:34:47;;;;;;;7.65;3.58;;;;;;;9.23;100.00;99295.69;5061450;28;20025;-78
2024/02/15 01:37:12;;;;;;;12.25;5.03;;;;;;;9.08;100.00;99292.94;5054797;28;20338;-79
2024/02/15 01:39:37;;;;;;;13.13;5.78;;;;;;;8.98;100.00;99306.69;5061026;28;20017;-77
2024/02/15 01:42:03;;;;;;;12.77;6.03;;;;;;;8.87;100.00;99307.13;5054907;28;20331;-79
2024/02/15 01:44:28;;;;;;;8.50;5.30;;;;;;;8.76;100.00;99291.34;5073024;28;20092;-78
2024/02/15 01:46:54;;;;;;;8.52;5.22;;;;;;;8.75;100.00;99309.41;5056615;28;20086;-79
2024/02/15 01:49:23;;;;;;;12.02;6.25;;;;;;;8.70;100.00;99308.28;5068541;28;20197;-78
2024/02/15 01:51:54;;;;;;;11.43;5.35;;;;;;;8.64;100.00;99307.09;5078602;28;20108;-78
2024/02/15 01:54:20;;;;;;;9.85;5.05;;;;;;;8.71;100.00;99318.03;5059431;28;20410;-78
2024/02/15 01:56:46;;;;;;;9.40;5.32;;;;;;;8.72;100.00;99309.78;5062340;28;20016;-78
2024/02/15 01:59:15;;;;;;;8.85;5.25;;;;;;;8.77;100.00;99306.50;5060056;28;20304;-78
2024/02/15 02:01:40;;;;;;;;;;;;;;;8.95;100.00;99325.94;5061296;28;20339;-78
2024/02/15 02:04:07;;;;;;;11.52;4.85;;;;;;;9.04;100.00;99324.03;5061534;28;19916;-78
2024/02/15 02:06:33;;;;;;;11.15;5.28;;;;;;;9.07;100.00;99315.56;5062253;28;20082;-78
2024/02/15 02:08:58;;;;;;;7.65;4.90;;;;;;;8.81;100.00;99266.53;5077423;28;20435;-78
2024/02/15 02:11:24;;;;;;;9.38;4.70;;;;;;;8.98;100.00;99301.28;5055915;28;20024;-78
2024/02/15 02:13:49;;;;;;;10.15;5.03;;;;;;;8.80;100.00;99279.16;5056058;28;20105;-77
2024/02/15 02:16:28;;;;;;;8.55;4.95;;;;;;;8.97;100.00;99307.72;5063704;28;20032;-78
2024/02/15 02:18:58;;;;;;;7.63;5.00;;;;;;;8.88;100.00;99295.31;5055088;28;20025;-77
2024/02/15 02:21:26;;;;;;;6.28;3.72;;;;;;;8.75;100.00;99265.38;5055610;28;20305;-77
2024/02/15 02:23:54;;;;;;;7.30;3.55;;;;;;;9.04;100.00;99313.25;5064404;28;20103;-77
2024/02/15 02:26:22;;;;;;;7.50;3.63;;;;;;;8.90;100.00;99274.38;5057379;28;20070;-79
2024/02/15 02:28:47;;;;;;;4.97;3.00;;;;;;;8.86;100.00;99256.03;5060690;28;20031;-77
2024/02/15 02:31:13;;;;;;;7.38;3.05;;;;;;;9.12;100.00;99283.47;5063553;28;20037;-78
2024/02/15 02:33:40;;;;;;;6.57;2.70;;;;;;;8.98;100.00;99277.00;5061441;28;20146;-78
2024/02/15 02:36:09;;;;;;;4.13;2.15;;;;;;;8.99;100.00;99281.41;5072146;28;20088;-78
2024/02/15 02:38:37;;;;;;;3.75;2.20;;;;;;;9.00;100.00;99285.75;5061529;28;20311;-79
2024/02/15 02:41:02;;;;;;;3.85;2.20;;;;;;;8.91;100.00;99267.13;5056379;28;20016;-77
2024/02/15 02:43:28;;;;;;;5.22;2.45;;;;;;;9.07;100.00;99293.97;5082602;28;20085;-78
2024/02/15 02:45:53;;;;;;;6.82;2.75;;;;;;;9.10;100.00;99298.19;5064308;28;20043;-78
2024/02/15 02:48:18;;;;;;;5.57;2.47;;;;;;;8.99;100.00;99284.09;5060728;28;20508;-78
2024/02/15 02:50:44;;;;;;;6.10;3.08;;;;;;;9.05;100.00;99285.22;5082699;28;20032;-78
2024/02/15 02:53:10;;;;;;;6.22;2.85;;;;;;;9.07;100.00;99279.66;5084068;28;20346;-80
2024/02/15 02:55:36;;;;;;;3.40;2.40;;;;;;;9.23;100.00;99306.50;5063815;28;20020;-77
2024/02/15 02:58:01;;;;;;;6.90;2.97;;;;;;;9.13;100.00;99297.81;5055447;28;20450;-78
2024/02/15 03:00:27;;;;;;;6.05;3.05;;;;;;;9.20;100.00;99304.16;5064427;28;20021;-78
2024/02/15 03:02:55;;;;;;;7.05;3.53;;;;;;;9.11;100.00;99294.44;5079624;28;20047;-78
2024/02/15 03:05:21;;;;;;;7.72;2.88;;;;;;;9.00;100.00;99282.22;5060751;28;20029;-77
2024/02/15 03:07:46;;;;;;;9.57;3.30;;;;;;;9.10;100.00;99290.09;5075561;28;20021;-78
2024/02/15 03:10:13;;;;;;;7.03;3.13;;;;;;;8.96;100.00;99279.06;5084017;28;20029;-78
2024/02/15 03:12:38;;;;;;;4.30;2.83;;;;;;;9.00;100.00;99271.44;5059860;28;20092;-77
2024/02/15 03:15:10;;;;;;;8.38;3.47;;;;;;;9.15;100.00;99293.06;5061826;28;20043;-78
2024/02/15 03:17:37;;;;;;;5.93;3.83;;;;;;;8.95;100.00;99263.88;5065774;28;20016;-78
2024/02/15 03:20:11;;;;;;;7.47;3.95;;;;;;;9.09;100.00;99275.75;5066449;28;20032;-77
2024/02/15 03:22:37;;;;;;;7.30;3.60;;;;;;;9.15;100.00;99276.88;5062117;28;20032;-79
2024/02/15 03:25:07;;;;;;;6.88;3.47;;;;;;;9.21;100.00;99286.94;5059046;28;20025;-78
2024/02/15 03:27:35;;;;;;;7.72;3.08;;;;;;;9.09;100.00;99273.06;5061802;28;20021;-79
2024/02/15 03:30:00;;;;;;;7.75;2.90;;;;;;;8.98;100.00;99250.00;5061681;28;20021;-79
2024/02/15 03:32:26;;;;;;;4.72;2.55;;;;;;;9.02;100.00;99266.69;5059222;28;20063;-78
2024/02/15 03:34:51;;;;;;;5.35;2.30;;;;;;;9.00;100.00;99257.94;5060409;28;20389;-78
2024/02/15 03:37:18;;;;;;;3.65;2.30;;;;;;;9.09;100.00;99264.97;5064270;28;20032;-78
2024/02/15 03:39:43;;;;;;;4.80;2.70;;;;;;;8.92;100.00;99248.03;5077942;28;20032;-78
2024/02/15 03:42:08;;;;;;;7.97;2.90;;;;;;;9.02;100.00;99257.78;5062135;28;20066;-78
2024/02/15 03:44:33;;;;;;;3.97;2.28;;;;;;;9.13;100.00;99278.91;5062247;28;20047;-76
2024/02/15 03:46:59;;;;;;;4.85;2.58;;;;;;;9.10;100.00;99263.09;5077067;28;20352;-77
2024/02/15 03:49:24;;;;;;;5.47;2.33;;;;;;;9.17;100.00;99264.03;5068222;28;20107;-76
2024/02/15 03:51:49;;;;;;;7.57;2.90;;;;;;;9.20;100.00;99269.91;5083526;28;20025;-76
2024/02/15 03:54:15;;;;;;;6.50;2.35;;;;;;;9.27;100.00;99267.28;5056185;28;20029;-76
2024/02/15 03:56:52;;;;;;;5.60;2.50;;;;;;;9.31;100.00;99265.91;5063501;28;20024;-76
2024/02/15 03:59:26;;;;;;;8.00;2.55;;;;;;;9.40;100.00;99278.31;5056860;28;20331;-77
2024/02/15 04:01:56;;;;;;;4.40;2.17;;;;;;;9.37;100.00;99273.28;5077379;28;20039;-77
2024/02/15 04:04:21;;;;;;;3.40;2.20;;;;;;;9.32;100.00;99274.84;5059354;28;20036;-76
2024/02/15 04:06:51;;;;;;;4.20;2.38;;;;;;;9.22;100.00;99242.72;5078292;28;20051;-77
2024/02/15 04:09:20;;;;;;;7.47;2.42;;;;;;;9.32;100.00;99270.28;5067559;28;20024;-77
2024/02/15 04:11:49;;;;;;;3.90;2.70;;;;;;;9.36;100.00;99278.88;5059528;28;20227;-77
2024/02/15 04:14:15;;;;;;;;;;;;;;;9.30;100.00;99283.16;5065023;28;20073;-77
2024/02/15 04:16:40;;;;;;;4.68;2.53;;;;;;;8.99;100.00;99231.97;5083372;28;19908;-77
2024/02/15 04:19:05;;;;;;;4.78;2.78;;;;;;;9.18;100.00;99271.09;5059765;28;20044;-77
2024/02/15 04:21:30;;;;;;;6.47;2.95;;;;;;;9.13;100.00;99270.81;5061783;28;20016;-77
2024/02/15 04:23:56;;;;;;;5.32;2.50;;;;;;;9.26;100.00;99273.72;5061945;28;20021;-76
2024/02/15 04:26:25;;;;;;;4.40;2.13;;;;;;;9.30;100.00;99285.84;5085221;28;20017;-79
2024/02/15 04:28:52;;;;;;;6.45;2.30;;;;;;;9.14;100.00;99257.16;5076716;28;20093;-83
2024/02/15 04:31:18;;;;;;;3.40;1.95;;;;;;;9.28;100.00;99277.09;5062930;28;20051;-79
2024/02/15 04:33:43;;;;;;;5.25;2.38;;;;;;;9.39;100.00;99292.00;5064010;28;20219;-80
2024/02/15 04:36:08;;;;;;;4.60;2.05;;;;;;;9.25;100.00;99272.06;5053854;28;20113;-80
2024/02/15 04:38:34;;;;;;;4.57;2.22;;;;;;;9.44;100.00;99287.72;5059384;28;20311;-79
2024/02/15 04:41:05;;;;;;;4.00;2.20;;;;;;;9.49;100.00;99289.06;5064402;28;20465;-82
2024/02/15 04:43:32;;;;;;;4.75;2.30;;;;;;;9.42;100.00;99261.94;5064685;28;20021;-81
2024/02/15 04:45:58;;;;;;;6.20;2.55;;;;;;;9.48;100.00;99277.38;5061906;28;20024;-80
2024/02/15 04:48:24;;;;;;;3.67;1.95;;;;;;;9.53;100.00;99279.53;5055101;28;20092;-81
2024/02/15 04:50:49;;;;;;;4.68;1.90;;;;;;;9.58;100.00;99287.94;5061812;28;20028;-81
2024/02/15 04:53:15;;;;;;;7.07;2.30;;;;;;;9.18;100.00;99223.34;5063738;28;20036;-83
2024/02/15 04:55:40;;;;;;;5.72;2.28;;;;;;;9.50;100.00;99272.63;5061268;28;20029;-80
2024/02/15 04:58:05;;;;;;;5.82;2.75;;;;;;;9.55;100.00;99280.19;5064715;28;20024;-78
2024/02/15 05:00:31;;;;;;;3.42;2.40;;;;;;;9.47;100.00;99264.06;5062209;28;20027;-79
2024/02/15 05:02:56;;;;;;;8.10;2.78;;;;;;;9.62;100.00;99281.13;5062132;28;20039;-78
2024/02/15 05:05:23;;;;;;;4.40;2.42;;;;;;;9.58;100.00;99269.00;5060723;28;20327;-84
2024/02/15 05:07:51;;;;;;;6.53;2.03;;;;;;;9.59;100.00;99259.91;5056750;28;20028;-84
2024/02/15 05:10:16;;;;;;;4.90;2.00;;;;;;;9.68;100.00;99266.03;5064725;28;20032;-84
2024/02/15 05:12:42;;;;;;;4.40;1.80;;;;;;;9.70;100.00;99269.41;5054821;28;20219;-83
2024/02/15 05:15:11;;;;;;;5.10;1.83;;;;;;;9.78;100.00;99261.19;5081740;28;20017;-83
2024/02/15 05:17:40;;;;;;;4.97;1.88;;;;;;;9.76;100.00;99257.84;5065802;28;20181;-79
2024/02/15 05:20:10;;;;;;;4.55;1.70;;;;;;;9.72;100.00;99248.41;5064042;28;20021;-80
2024/02/15 05:22:36;;;;;;;9.57;2.65;;;;;;;9.77;100.00;99243.28;5060307;28;20029;-81
2024/02/15 05:25:02;;;;;;;3.90;1.65;;;;;;;9.66;100.00;99218.41;5057227;28;20032;-82
2024/02/15 05:27:27;;;;;;;7.57;2.00;;;;;;;9.63;100.00;99226.06;5064497;28;20012;-73
2024/02/15 05:29:52;;;;;;;9.35;2.20;;;;;;;9.70;100.00;99237.81;5081614;28;20021;-75
2024/02/15 05:32:19;;;;;;;5.18;2.00;;;;;;;9.80;100.00;99245.66;5065824;28;20036;-84
2024/02/15 05:34:45;;;;;;;4.38;2.10;;;;;;;9.78;100.00;99247.69;5059879;28;20021;-84
2024/02/15 05:37:10;;;;;;;9.02;2.72;;;;;;;9.78;100.00;99239.59;5058916;28;20074;-84
2024/02/15 05:39:35;;;;;;;5.50;2.38;;;;;;;9.78;100.00;99237.72;5071271;28;20025;-82
2024/02/15 05:42:01;;;;;;;8.18;2.10;;;;;;;9.83;100.00;99242.56;5058761;28;20035;-79
2024/02/15 05:44:26;;;;;;;4.18;1.98;;;;;;;9.86;100.00;99251.13;5061709;28;20059;-84
2024/02/15 05:46:52;;;;;;;5.95;2.50;;;;;;;9.85;100.00;99224.28;5062996;28;20020;-82
2024/02/15 05:49:17;;;;;;;9.15;2.10;;;;;;;9.79;100.00;99220.47;5064156;28;20310;-79
2024/02/15 05:51:43;;;;;;;5.25;1.95;;;;;;;10.02;100.00;99236.56;5063575;28;20031;-78
2024/02/15 05:54:09;;;;;;;4.60;2.10;;;;;;;9.88;100.00;99227.47;5050774;28;20025;-78
2024/02/15 05:56:34;;;;;;;3.75;1.95;;;;;;;9.85;100.00;99202.66;5053963;28;20071;-79
2024/02/15 05:59:02;;;;;;;7.53;2.85;;;;;;;9.73;100.00;99182.56;5064456;28;20048;-77
2024/02/15 06:01:29;;;;;;;6.90;2.00;;;;;;;9.89;100.00;99212.06;5067779;28;20333;-79
2024/02/15 06:03:55;;;;;;;6.63;2.28;;;;;;;9.95;100.00;99215.88;5069246;28;20032;-81
2024/02/15 06:06:21;;;;;;;5.60;1.90;;;;;;;10.10;100.00;99238.31;5084612;28;20025;-79
2024/02/15 06:08:46;;;;;;;9.32;2.15;;;;;;;10.11;100.00;99229.16;5054550;28;20048;-77
2024/02/15 06:11:12;;;;;;;10.57;3.03;;;;;;;10.12;100.00;99224.63;5061927;28;20028;-70
2024/02/15 06:13:37;;;;;;;11.77;3.22;;;;;;;10.05;100.00;99228.06;5074161;28;20028;-71
2024/02/15 06:16:08;;;;;;;15.98;3.85;;;;;;;10.14;100.00;99236.94;5078102;28;20065;-71
2024/02/15 06:18:34;;;;;;;16.85;4.40;;;;;;;10.17;100.00;99241.13;5081735;28;20024;-70
2024/02/15 06:21:00;;;;;;;13.00;4.40;;;;;;;10.20;100.00;99238.84;5084847;28;20023;-70
2024/02/15 06:23:27;;;;;;;8.75;3.33;;;;;;;10.21;100.00;99237.81;5080465;28;20016;-70
2024/02/15 06:25:54;;;;;;;13.00;3.72;;;;;;;10.21;100.00;99229.72;5082036;28;20196;-70
2024/02/15 06:39:40;;;;;;;4.88;1.80;;;;;;;10.38;100.00;99216.00;5076838;28;20023;-70
2024/02/15 06:42:03;;;;;;;3.35;1.50;;;;;;;10.45;100.00;99233.97;5078087;28;20044;-70
2024/02/15 06:44:28;;;;;;;2.10;1.20;;;;;;;10.37;100.00;99217.00;5078695;28;20107;-70
2024/02/15 06:46:53;;;;;;;3.58;1.55;;;;;;;10.43;100.00;99244.16;5078117;28;20046;-72
2024/02/15 06:49:19;;;;;;;4.55;1.15;;;;;;;10.34;100.00;99220.94;5081154;28;20034;-71
2024/02/15 06:51:47;;;;;;;1.85;1.20;;;;;;;10.46;100.00;99232.09;5080567;28;20051;-72
2024/02/15 06:54:12;;;;;;;4.10;2.15;;;;;;;10.55;100.00;99233.66;5075571;28;20073;-72
2024/02/15 06:56:39;;;;;;;3.80;2.10;;;;;;;10.58;100.00;99218.91;5061852;28;20399;-71
2024/02/15 06:59:04;;;;;;;5.22;1.70;;;;;;;10.56;100.00;99220.94;5058960;28;20103;-80
2024/02/15 07:01:30;;;;;;;6.20;1.60;;;;;;;10.63;100.00;99217.28;5085482;28;20025;-78
2024/02/15 07:03:55;;;;;;;2.90;1.30;;;;;;;10.54;100.00;99183.28;5068902;28;20024;-83
2024/02/15 07:06:21;;;;;;;4.10;1.80;;;;;;;10.74;100.00;99213.22;5064507;28;20103;-83
2024/02/15 07:08:47;;;;;;;2.97;1.38;;;;;;;10.80;100.00;99217.88;5068911;28;20027;-83
2024/02/15 07:11:13;;;;;;;4.45;1.60;;;;;;;10.80;100.00;99208.91;5072246;28;20024;-82
2024/02/15 07:13:38;;;;;;;3.05;1.20;;;;;;;10.92;100.00;99218.16;5066765;28;20029;-71
2024/02/15 07:16:07;;;;;;;5.18;0.93;;;;;;;10.94;100.00;99214.22;5081143;28;20201;-72
2024/02/15 07:18:33;;;;;;;7.10;1.20;;;;;;;11.07;100.00;99218.91;5083271;28;20212;-72
2024/02/15 07:21:00;;;;;;;4.65;1.30;;;;;;;11.12;100.00;99221.88;5079830;28;20358;-71
2024/02/15 07:23:25;;;;;;;2.67;1.13;;;;;;;11.12;100.00;99205.63;5083909;28;20070;-72
2024/02/15 07:25:53;;;;;;;3.90;1.13;;;;;;;11.11;100.00;99195.84;5082090;28;20255;-72
2024/02/15 07:28:19;;;;;;;4.00;1.00;;;;;;;11.23;100.00;99209.66;5078614;28;20032;-70
2024/02/15 07:30:46;;;;;;;5.10;1.08;;;;;;;11.33;100.00;99207.44;5077694;28;20303;-70
2024/02/15 07:33:11;;;;;;;1.83;1.02;;;;;;;11.25;100.00;99195.94;5081353;28;20039;-70
2024/02/15 07:35:36;;;;;;;3.60;1.10;;;;;;;11.52;100.00;99205.88;5082554;28;20024;-70
2024/02/15 07:38:05;;;;;;;4.20;1.17;;;;;;;11.55;100.00;99194.66;5078699;28;20028;-72
2024/02/15 07:40:30;;;;;;;5.40;1.90;;;;;;;11.70;100.00;99194.50;5073053;28;20063;-71
2024/02/15 07:42:58;;;;;;;2.20;0.90;;;;;;;11.81;100.00;99193.09;5078944;28;20047;-71
2024/02/15 07:45:23;;;;;;;5.88;1.40;;;;;;;11.88;100.00;99175.03;5078070;28;20028;-71
2024/02/15 07:47:49;;;;;;;2.03;1.10;;;;;;;12.27;100.00;99170.78;5079827;28;20091;-71
2024/02/15 07:50:19;;;;;;;3.67;1.05;;;;;;;12.62;100.00;99185.00;5081323;28;20036;-71
2024/02/15 07:52:45;;;;;;;4.15;1.75;;;;;;;13.30;100.00;99167.69;5077596;28;20020;-71
2024/02/15 07:55:10;;;;;;;4.13;1.42;;;;;;;14.13;100.00;99162.34;5079892;28;20339;-71
2024/02/15 07:57:35;;;;;;;5.70;1.10;;;;;;;15.08;100.00;99167.75;5073211;28;20028;-71
2024/02/15 08:00:01;;;;;;;3.03;1.15;;;;;;;16.21;100.00;99168.41;5080360;28;20193;-71
2024/02/15 08:02:28;;;;;;;4.15;1.05;;;;;;;17.35;100.00;99153.81;5075862;28;20088;-71
2024/02/15 08:04:54;;;;;;;5.75;1.10;;;;;;;18.40;100.00;99155.44;5077203;28;20024;-71
2024/02/15 08:07:20;;;;;;;3.88;0.85;;;;;;;18.54;100.00;99150.47;5074263;28;20024;-71
2024/02/15 08:09:46;;;;;;;3.45;0.98;;;;;;;18.65;100.00;99144.09;5077263;28;20032;-71
2024/02/15 08:12:11;;;;;;;4.30;0.85;;;;;;;18.65;100.00;99137.78;5078634;28;20032;-71
2024/02/15 08:14:37;;;;;;;2.63;0.98;;;;;;;18.46;100.00;99138.00;5060855;28;20074;-70
2024/02/15 08:17:03;;;;;;;2.80;0.70;;;;;;;17.73;100.00;99132.19;5079534;28;20044;-72
2024/02/15 08:19:28;;;;;;;3.08;1.10;;;;;;;16.78;100.00;99136.06;5063660;28;20020;-72
2024/02/15 08:21:54;;;;;;;3.60;1.00;;;;;;;16.06;100.00;99135.22;5061429;28;20047;-72
2024/02/15 08:24:19;;;;;;;3.60;0.98;;;;;;;15.27;100.00;99146.00;5079860;28;20066;-72
2024/02/15 08:26:44;;;;;;;2.40;0.98;;;;;;;15.36;100.00;99114.66;5078949;28;20024;-72
2024/02/15 08:29:11;;;;;;;5.15;1.15;;;;;;;15.38;100.00;99126.19;5079993;28;20048;-72
2024/02/15 08:31:37;;;;;;;4.03;1.33;;;;;;;15.03;100.00;99137.63;5077592;28;20311;-73
2024/02/15 08:34:05;;;;;;;2.75;1.23;;;;;;;14.92;100.00;99138.38;5080382;28;20067;-72
2024/02/15 08:36:31;;;;;;;5.57;1.37;;;;;;;14.79;100.00;99138.50;5080379;28;20028;-72
2024/02/15 08:38:56;;;;;;;5.93;1.20;;;;;;;14.80;100.00;99121.06;5076567;28;20297;-72
2024/02/15 08:41:23;;;;;;;4.22;1.50;;;;;;;14.93;100.00;99129.13;5078723;28;20208;-72
2024/02/15 08:43:48;;;;;;;2.92;1.02;;;;;;;14.93;100.00;99115.50;5080253;28;20327;-71
2024/02/15 08:46:14;;;;;;;5.15;1.15;;;;;;;15.23;100.00;99115.63;5076976;28;20088;-72
2024/02/15 08:48:40;;;;;;;3.55;1.17;;;;;;;15.90;100.00;99132.09;5075262;28;20035;-72
2024/02/15 08:51:08;;;;;;;2.97;1.23;;;;;;;16.59;100.00;99132.56;5078201;28;20017;-72
2024/02/15 08:53:34;;;;;;;3.22;1.10;;;;;;;16.91;100.00;99128.72;5079887;28;20024;-72
2024/02/15 08:55:59;;;;;;;7.05;1.10;;;;;;;16.99;100.00;99112.78;5080666;28;20101;-72
2024/02/15 08:58:25;;;;;;;4.85;1.33;;;;;;;17.06;100.00;99118.16;5075948;28;20025;-72
2024/02/15 09:00:50;;;;;;;4.22;1.10;;;;;;;17.27;100.00;99119.44;5053854;28;20016;-72
2024/02/15 09:03:15;;;;;;;1.92;1.00;;;;;;;17.44;100.00;99116.78;5071892;28;20339;-73
2024/02/15 09:05:41;;;;;;;2.97;1.08;;;;;;;18.75;100.00;99107.84;5080030;28;20073;-72
2024/02/15 09:08:07;;;;;;;2.00;0.98;;;;;;;19.55;100.00;99111.22;5072211;28;20275;-73
2024/02/15 09:10:32;;;;;;;2.65;1.00;;;;;;;20.41;92.22;99113.28;5075158;28;20082;-78
2024/02/15 09:12:59;;;;;;;3.40;1.45;;;;;;;21.53;86.67;99105.91;5064336;28;20071;-77
2024/02/15 09:15:24;;;;;;;4.78;1.35;;;;;;;22.27;82.02;99107.59;5064731;28;20537;-78
2024/02/15 09:17:50;;;;;;;5.22;1.20;;;;;;;22.04;79.82;99078.59;5066937;28;20220;-72
2024/02/15 09:20:18;;;;;;;3.40;1.30;;;;;;;22.91;76.69;99103.50;5074718;28;20021;-79
2024/02/15 09:22:51;;;;;;;3.63;1.27;;;;;;;23.98;71.57;99102.41;5060503;28;20092;-69
2024/02/15 09:25:18;;;;;;;2.50;1.10;;;;;;;24.45;68.66;99111.31;5056081;28;20059;-69
2024/02/15 09:27:43;;;;;;;3.13;1.10;;;;;;;25.42;65.16;99091.09;5072314;28;20043;-71
2024/02/15 09:30:10;;;;;;;5.50;1.25;;;;;;;25.74;62.60;99092.38;5079720;28;20024;-71
2024/02/15 09:32:39;;;;;;;3.22;1.00;;;;;;;26.22;60.72;99095.88;5072615;28;20037;-81
2024/02/15 09:35:07;;;;;;;;;;;;;;;26.58;59.66;99102.88;5068032;28;20008;-81
2024/02/15 09:37:33;;;;;;;3.63;1.20;;;;;;;26.06;59.92;99093.63;5061153;28;19921;-78
2024/02/15 09:40:03;;;;;;;2.60;0.90;;;;;;;26.93;57.52;99095.91;5071467;28;20025;-81
2024/02/15 09:42:29;;;;;;;3.17;0.88;;;;;;;26.25;56.47;99075.03;5082067;28;20084;-76
2024/02/15 09:44:54;;;;;;;3.70;0.95;;;;;;;27.73;55.88;99091.91;5063455;28;20044;-74
2024/02/15 09:47:20;;;;;;;3.88;1.30;;;;;;;27.42;55.65;99090.88;5077241;28;20224;-81
2024/02/15 09:49:47;;;;;;;2.60;0.98;;;;;;;28.49;53.59;99098.94;5069629;28;20029;-82
2024/02/15 09:52:15;;;;;;;3.15;1.00;;;;;;;28.96;51.33;99083.53;5064218;28;20055;-79
2024/02/15 09:54:44;;;;;;;2.63;0.90;;;;;;;28.96;50.92;99080.75;5065309;28;20024;-82
2024/02/15 09:57:11;;;;;;;2.40;0.88;;;;;;;28.77;51.48;99080.16;5063929;28;20024;-81
2024/02/15 09:59:37;;;;;;;4.60;0.80;;;;;;;28.37;51.09;99075.25;5070518;28;20020;-83
2024/02/15 10:02:03;;;;;;;3.70;0.88;;;;;;;28.61;50.27;99083.31;5068977;28;20075;-82
2024/02/15 10:04:28;;;;;;;2.85;0.82;;;;;;;28.08;49.52;99070.06;5065959;28;20055;-84
2024/02/15 10:06:54;;;;;;;3.22;0.90;;;;;;;28.65;49.36;99063.19;5056096;28;20312;-72
2024/02/15 10:09:30;;;;;;;4.25;1.20;;;;;;;28.91;49.13;99068.94;5083508;28;20028;-73
2024/02/15 10:11:57;;;;;;;3.65;0.95;;;;;;;27.91;50.27;99067.13;5064214;28;20021;-71
2024/02/15 10:14:24;;;;;;;2.67;0.90;;;;;;;27.95;49.66;99066.16;5079303;28;20106;-72
2024/02/15 10:16:49;;;;;;;1.95;0.90;;;;;;;28.36;49.80;99078.34;5072299;28;20020;-72
2024/02/15 10:19:15;;;;;;;4.43;0.80;;;;;;;26.72;51.58;99076.00;5084341;28;20035;-72
2024/02/15 10:21:41;;;;;;;2.85;1.00;;;;;;;27.82;50.75;99066.19;5078249;28;20021;-71
2024/02/15 10:24:07;;;;;;;4.35;0.90;;;;;;;28.39;48.90;99061.81;5064546;28;20020;-72
2024/02/15 10:26:34;;;;;;;1.88;1.00;;;;;;;29.69;47.77;99055.41;5080970;28;20032;-71
2024/02/15 10:29:10;;;;;;;3.80;0.80;;;;;;;28.43;48.12;99036.97;5060890;28;20312;-71
2024/02/15 10:31:41;;;;;;;1.45;0.65;;;;;;;29.41;46.77;99052.00;5067131;28;20040;-71
2024/02/15 10:34:08;;;;;;;2.30;0.73;;;;;;;28.73;48.68;99045.72;5066642;28;20203;-71
2024/02/15 10:36:34;;;;;;;3.47;0.70;;;;;;;29.58;46.70;99054.84;5063343;28;20222;-71
2024/02/15 10:39:20;;;;;;;3.80;0.70;;;;;;;29.77;45.73;99018.34;5082756;28;20024;-71
2024/02/15 10:41:47;;;;;;;2.22;0.77;;;;;;;31.28;43.90;99027.88;5062696;28;20031;-71
2024/02/15 10:44:16;;;;;;;3.58;0.80;;;;;;;30.03;44.55;99026.75;5079336;28;20048;-71
2024/02/15 10:46:42;;;;;;;1.27;0.60;;;;;;;28.61;45.57;99022.06;5080447;28;20078;-71
2024/02/15 10:49:07;;;;;;;3.13;0.70;;;;;;;28.32;45.99;99028.06;5080561;28;20040;-71
2024/02/15 10:51:34;;;;;;;4.47;0.90;;;;;;;29.48;44.59;99005.78;5066510;28;20028;-72
2024/02/15 10:54:05;;;;;;;1.50;0.40;;;;;;;29.18;43.64;99015.03;5080059;28;20047;-71
2024/02/15 10:56:40;;;;;;;1.80;0.60;;;;;;;30.17;43.61;99009.03;5061777;28;20335;-72
2024/02/15 10:59:18;;;;;;;2.47;0.60;;;;;;;30.56;42.15;99005.25;5061170;28;20032;-72
2024/02/15 11:01:46;;;;;;;1.35;0.65;;;;;;;29.93;42.34;99010.31;5082453;28;20021;-72
2024/02/15 11:04:15;;;;;;;2.13;0.70;;;;;;;29.33;43.63;99014.59;5060051;28;20130;-72
2024/02/15 11:06:42;;;;;;;;;;;;;;;29.41;43.19;99015.75;5061831;28;20841;-72
2024/02/15 11:09:11;;;;;;;1.45;0.60;;;;;;;28.54;44.78;98988.28;5064948;28;20212;-71
2024/02/15 11:11:37;;;;;;;2.15;0.60;;;;;;;30.39;43.41;98985.72;5062170;28;20356;-72
2024/02/15 11:14:29;;;;;;;3.40;0.70;;;;;;;29.58;43.80;98999.09;5080707;28;20079;-71
2024/02/15 11:17:00;;;;;;;2.35;0.70;;;;;;;29.23;44.79;98990.63;5061367;28;20056;-71
2024/02/15 11:19:32;;;;;;;2.42;0.68;;;;;;;29.27;44.70;98993.59;5072996;28;20095;-71
2024/02/15 11:21:58;;;;;;;2.97;1.10;;;;;;;29.76;44.49;98977.63;5078019;28;20024;-72
2024/02/15 11:24:28;;;;;;;3.88;0.65;;;;;;;28.64;44.01;98981.63;5078788;28;20028;-72
2024/02/15 11:27:03;;;;;;;1.70;0.75;;;;;;;28.66;45.26;98984.09;5063052;28;20035;-71
2024/02/15 11:29:51;;;;;;;2.22;0.57;;;;;;;28.60;45.21;98970.31;5065758;28;20208;-71
2024/02/15 11:32:36;;;;;;;2.78;1.13;;;;;;;29.91;43.32;98957.63;5077274;28;20027;-71
2024/02/15 11:35:13;;;;;;;2.22;0.52;;;;;;;30.78;42.42;98945.53;5079689;28;20101;-72
2024/02/15 11:37:48;;;;;;;2.83;0.82;;;;;;;30.51;41.59;98946.78;5083013;28;20057;-71
2024/02/15 11:40:14;;;;;;;2.55;1.00;;;;;;;29.10;42.05;98946.97;5070792;28;20023;-70